Cache Junction, Utah
Current Conditions -  °F | °C
As of 2:51 AM on Saturday 22 Nov 2014 (Local Time) from KLGU Reporting Station
Broken Clouds Broken Clouds  
Wind Chill: 25°   Ceiling: 8000
Heat Index: 31°   Visibility: 10mi
Dew Point: 26°   Wind: 6mph
Humidity: 82%   Direction: 60°ENE
Pressure: 29.93"   Gusts: NA
Location:  41.84°N, 112.01°W
Report Text: KLGU 220951Z AUTO 06005KT 10SM BKN080 BKN100 M01/M03 A2993 RMK AO2 SLP135 T10061033
Loading
Personal Weather Stations






























Interactive Weather Map New forecast layout! Learn more

10-Day Weather Forecast

Advertisements
Track Severe Weather on mobile